sensor_id;sensor_type;location;lat;lon;timestamp;pressure;altitude;pressure_sealevel;temperature;humidity
60240;BME280;46102;39.012;-7.064;2022-09-09T00:00:17;98708.13;;;22.06;69.32
60240;BME280;46102;39.012;-7.064;2022-09-09T00:02:20;98709.75;;;22.07;69.39
60240;BME280;46102;39.012;-7.064;2022-09-09T00:06:30;98709.28;;;22.01;69.26
60240;BME280;46102;39.012;-7.064;2022-09-09T00:10:43;98707.66;;;21.97;69.42
60240;BME280;46102;39.012;-7.064;2022-09-09T00:15:11;98707.25;;;21.95;69.66
60240;BME280;46102;39.012;-7.064;2022-09-09T00:17:31;98704.06;;;21.93;69.46
60240;BME280;46102;39.012;-7.064;2022-09-09T00:19:49;98708.84;;;21.92;69.54
60240;BME280;46102;39.012;-7.064;2022-09-09T00:21:58;98705.63;;;21.90;69.74
60240;BME280;46102;39.012;-7.064;2022-09-09T00:24:11;98711.22;;;21.90;69.41
60240;BME280;46102;39.012;-7.064;2022-09-09T00:28:38;98703.59;;;21.83;70.00
60240;BME280;46102;39.012;-7.064;2022-09-09T00:30:40;98711.97;;;21.83;70.04
60240;BME280;46102;39.012;-7.064;2022-09-09T00:32:43;98705.56;;;21.76;70.40
60240;BME280;46102;39.012;-7.064;2022-09-09T00:34:49;98705.94;;;21.74;70.68
60240;BME280;46102;39.012;-7.064;2022-09-09T00:36:52;98707.09;;;21.70;70.59
60240;BME280;46102;39.012;-7.064;2022-09-09T00:39:00;98698.72;;;21.66;70.48
60240;BME280;46102;39.012;-7.064;2022-09-09T00:41:17;98698.69;;;21.62;70.88
60240;BME280;46102;39.012;-7.064;2022-09-09T00:43:24;98698.25;;;21.60;70.73
60240;BME280;46102;39.012;-7.064;2022-09-09T00:52:25;98690.97;;;21.45;71.63
60240;BME280;46102;39.012;-7.064;2022-09-09T00:56:50;98687.41;;;21.48;71.86
60240;BME280;46102;39.012;-7.064;2022-09-09T00:59:05;98683.78;;;21.44;72.12
60240;BME280;46102;39.012;-7.064;2022-09-09T01:01:12;98680.22;;;21.44;72.54
60240;BME280;46102;39.012;-7.064;2022-09-09T01:05:33;98689.63;;;21.32;72.85
60240;BME280;46102;39.012;-7.064;2022-09-09T01:07:35;98685.25;;;21.31;72.80
60240;BME280;46102;39.012;-7.064;2022-09-09T01:09:51;98681.25;;;21.28;72.58
60240;BME280;46102;39.012;-7.064;2022-09-09T01:14:13;98664.47;;;21.25;73.14
60240;BME280;46102;39.012;-7.064;2022-09-09T01:16:17;98676.84;;;21.27;72.61
60240;BME280;46102;39.012;-7.064;2022-09-09T01:18:21;98673.63;;;21.25;73.02
60240;BME280;46102;39.012;-7.064;2022-09-09T01:20:27;98678.78;;;21.23;72.76
60240;BME280;46102;39.012;-7.064;2022-09-09T01:27:15;98685.94;;;21.20;73.19
60240;BME280;46102;39.012;-7.064;2022-09-09T01:29:18;98679.53;;;21.16;73.35
60240;BME280;46102;39.012;-7.064;2022-09-09T01:31:38;98682.31;;;21.13;73.82
60240;BME280;46102;39.012;-7.064;2022-09-09T01:33:41;98676.34;;;21.14;73.62
60240;BME280;46102;39.012;-7.064;2022-09-09T01:35:49;98686.31;;;21.15;73.83
60240;BME280;46102;39.012;-7.064;2022-09-09T01:37:56;98684.72;;;21.14;73.84
60240;BME280;46102;39.012;-7.064;2022-09-09T01:39:57;98686.63;;;21.07;74.46
60240;BME280;46102;39.012;-7.064;2022-09-09T01:41:58;98688.56;;;21.03;74.51
60240;BME280;46102;39.012;-7.064;2022-09-09T01:44:00;98691.34;;;20.99;74.71
60240;BME280;46102;39.012;-7.064;2022-09-09T01:46:04;98686.94;;;20.98;74.37
60240;BME280;46102;39.012;-7.064;2022-09-09T01:48:09;98682.13;;;20.95;74.57
60240;BME280;46102;39.012;-7.064;2022-09-09T01:50:20;98681.34;;;20.94;75.08
60240;BME280;46102;39.012;-7.064;2022-09-09T01:52:22;98679.34;;;20.95;74.68
60240;BME280;46102;39.012;-7.064;2022-09-09T01:54:25;98675.34;;;20.92;75.11
60240;BME280;46102;39.012;-7.064;2022-09-09T01:56:39;98675.72;;;20.91;74.84
60240;BME280;46102;39.012;-7.064;2022-09-09T02:03:21;98670.88;;;20.84;75.21
60240;BME280;46102;39.012;-7.064;2022-09-09T02:05:38;98670.44;;;20.82;75.33
60240;BME280;46102;39.012;-7.064;2022-09-09T02:07:48;98669.66;;;20.82;75.14
60240;BME280;46102;39.012;-7.064;2022-09-09T02:10:13;98660.91;;;20.83;75.48
60240;BME280;46102;39.012;-7.064;2022-09-09T02:12:25;98660.50;;;20.81;75.34
60240;BME280;46102;39.012;-7.064;2022-09-09T02:14:34;98660.91;;;20.83;75.63
60240;BME280;46102;39.012;-7.064;2022-09-09T02:16:44;98662.03;;;20.75;76.03
60240;BME280;46102;39.012;-7.064;2022-09-09T02:18:50;98663.59;;;20.72;76.19
60240;BME280;46102;39.012;-7.064;2022-09-09T02:20:58;98661.59;;;20.69;76.23
60240;BME280;46102;39.012;-7.064;2022-09-09T02:23:00;98676.25;;;20.66;76.21
60240;BME280;46102;39.012;-7.064;2022-09-09T02:25:04;98669.47;;;20.64;76.22
60240;BME280;46102;39.012;-7.064;2022-09-09T02:27:09;98668.28;;;20.65;76.37
60240;BME280;46102;39.012;-7.064;2022-09-09T02:29:15;98673.44;;;20.63;76.72
60240;BME280;46102;39.012;-7.064;2022-09-09T02:31:20;98671.41;;;20.59;76.74
60240;BME280;46102;39.012;-7.064;2022-09-09T02:33:27;98674.97;;;20.56;76.73
60240;BME280;46102;39.012;-7.064;2022-09-09T02:35:30;98677.41;;;20.62;77.18
60240;BME280;46102;39.012;-7.064;2022-09-09T02:37:36;98675.69;;;20.53;77.31
60240;BME280;46102;39.012;-7.064;2022-09-09T02:39:37;98675.69;;;20.53;77.26
60240;BME280;46102;39.012;-7.064;2022-09-09T02:41:41;98675.28;;;20.51;77.37
60240;BME280;46102;39.012;-7.064;2022-09-09T02:43:43;98679.25;;;20.50;77.09
60240;BME280;46102;39.012;-7.064;2022-09-09T02:46:08;98671.69;;;20.51;77.42
60240;BME280;46102;39.012;-7.064;2022-09-09T02:48:22;98672.06;;;20.49;77.65
60240;BME280;46102;39.012;-7.064;2022-09-09T02:50:34;98665.66;;;20.45;77.94
60240;BME280;46102;39.012;-7.064;2022-09-09T02:54:41;98676.31;;;20.39;78.05
60240;BME280;46102;39.012;-7.064;2022-09-09T02:56:52;98673.53;;;20.39;78.42
60240;BME280;46102;39.012;-7.064;2022-09-09T02:58:58;98671.47;;;20.33;78.50
60240;BME280;46102;39.012;-7.064;2022-09-09T03:01:00;98676.25;;;20.32;78.70
60240;BME280;46102;39.012;-7.064;2022-09-09T03:03:04;98677.88;;;20.33;78.49
60240;BME280;46102;39.012;-7.064;2022-09-09T03:05:07;98688.66;;;20.38;78.36
60240;BME280;46102;39.012;-7.064;2022-09-09T03:07:08;98680.25;;;20.35;78.60
60240;BME280;46102;39.012;-7.064;2022-09-09T03:09:09;98678.22;;;20.32;78.81
60240;BME280;46102;39.012;-7.064;2022-09-09T03:11:11;98684.59;;;20.32;78.58
60240;BME280;46102;39.012;-7.064;2022-09-09T03:13:12;98687.81;;;20.34;78.82
60240;BME280;46102;39.012;-7.064;2022-09-09T03:15:16;98682.59;;;20.33;78.97
60240;BME280;46102;39.012;-7.064;2022-09-09T03:17:18;98682.19;;;20.31;78.99
60240;BME280;46102;39.012;-7.064;2022-09-09T03:19:26;98683.00;;;20.31;79.33
60240;BME280;46102;39.012;-7.064;2022-09-09T03:21:28;98685.31;;;20.26;79.87
60240;BME280;46102;39.012;-7.064;2022-09-09T03:23:29;98679.31;;;20.24;79.94
60240;BME280;46102;39.012;-7.064;2022-09-09T03:25:31;98679.28;;;20.20;80.17
60240;BME280;46102;39.012;-7.064;2022-09-09T03:27:34;98676.06;;;20.18;80.04
60240;BME280;46102;39.012;-7.064;2022-09-09T03:29:36;98688.78;;;20.15;80.28
60240;BME280;46102;39.012;-7.064;2022-09-09T03:31:41;98680.84;;;20.17;80.16
60240;BME280;46102;39.012;-7.064;2022-09-09T03:33:43;98684.81;;;20.16;80.25
60240;BME280;46102;39.012;-7.064;2022-09-09T03:35:46;98681.97;;;20.13;80.46
60240;BME280;46102;39.012;-7.064;2022-09-09T03:37:53;98686.00;;;20.15;80.37
60240;BME280;46102;39.012;-7.064;2022-09-09T03:39:55;98694.78;;;20.17;80.37
60240;BME280;46102;39.012;-7.064;2022-09-09T03:41:57;98691.22;;;20.21;79.97
60240;BME280;46102;39.012;-7.064;2022-09-09T03:43:58;98696.00;;;20.20;79.90
60240;BME280;46102;39.012;-7.064;2022-09-09T03:46:01;98696.38;;;20.18;79.81
60240;BME280;46102;39.012;-7.064;2022-09-09T03:48:03;98690.00;;;20.18;79.74
60240;BME280;46102;39.012;-7.064;2022-09-09T03:50:07;98701.56;;;20.20;80.12
60240;BME280;46102;39.012;-7.064;2022-09-09T03:52:11;98698.28;;;20.14;80.29
60240;BME280;46102;39.012;-7.064;2022-09-09T03:54:12;98697.88;;;20.12;80.24
60240;BME280;46102;39.012;-7.064;2022-09-09T03:56:13;98697.44;;;20.10;80.44
60240;BME280;46102;39.012;-7.064;2022-09-09T03:58:15;98702.63;;;20.12;80.86
60240;BME280;46102;39.012;-7.064;2022-09-09T04:00:17;98699.41;;;20.06;81.12
60240;BME280;46102;39.012;-7.064;2022-09-09T04:02:19;98697.34;;;20.03;81.08
60240;BME280;46102;39.012;-7.064;2022-09-09T04:04:20;98696.91;;;20.01;81.25
60240;BME280;46102;39.012;-7.064;2022-09-09T04:06:21;98702.91;;;20.03;81.18
60240;BME280;46102;39.012;-7.064;2022-09-09T04:08:22;98697.72;;;20.02;81.28
60240;BME280;46102;39.012;-7.064;2022-09-09T04:10:26;98696.97;;;20.05;81.18
60240;BME280;46102;39.012;-7.064;2022-09-09T04:12:29;98698.91;;;20.01;81.41
60240;BME280;46102;39.012;-7.064;2022-09-09T04:14:29;98700.09;;;20.00;81.44
60240;BME280;46102;39.012;-7.064;2022-09-09T04:16:32;98691.31;;;19.98;81.66
60240;BME280;46102;39.012;-7.064;2022-09-09T04:18:33;98690.88;;;19.95;82.01
60240;BME280;46102;39.012;-7.064;2022-09-09T04:20:35;98691.31;;;19.98;81.84
60240;BME280;46102;39.012;-7.064;2022-09-09T04:22:36;98690.84;;;19.92;82.07
60240;BME280;46102;39.012;-7.064;2022-09-09T04:24:39;98699.50;;;19.87;82.30
60240;BME280;46102;39.012;-7.064;2022-09-09T04:26:41;98689.97;;;19.88;82.24
60240;BME280;46102;39.012;-7.064;2022-09-09T04:28:42;98685.97;;;19.85;82.20
60240;BME280;46102;39.012;-7.064;2022-09-09T04:30:50;98695.94;;;19.86;82.14
60240;BME280;46102;39.012;-7.064;2022-09-09T04:32:51;98697.09;;;19.85;82.29
60240;BME280;46102;39.012;-7.064;2022-09-09T04:34:51;98694.72;;;19.84;82.36
60240;BME280;46102;39.012;-7.064;2022-09-09T04:36:52;98698.66;;;19.83;82.63
60240;BME280;46102;39.012;-7.064;2022-09-09T04:38:53;98695.88;;;19.83;82.60
60240;BME280;46102;39.012;-7.064;2022-09-09T04:40:54;98701.00;;;19.81;82.53
60240;BME280;46102;39.012;-7.064;2022-09-09T04:42:58;98698.19;;;19.77;82.74
60240;BME280;46102;39.012;-7.064;2022-09-09T04:44:59;98694.59;;;19.76;82.90
60240;BME280;46102;39.012;-7.064;2022-09-09T04:47:02;98689.84;;;19.77;82.92
60240;BME280;46102;39.012;-7.064;2022-09-09T04:49:02;98695.72;;;19.72;83.27
60240;BME280;46102;39.012;-7.064;2022-09-09T04:51:08;98694.47;;;19.69;83.20
60240;BME280;46102;39.012;-7.064;2022-09-09T04:53:10;98690.53;;;19.70;83.16
60240;BME280;46102;39.012;-7.064;2022-09-09T04:55:12;98695.72;;;19.72;83.05
60240;BME280;46102;39.012;-7.064;2022-09-09T04:57:15;98697.25;;;19.69;83.09
60240;BME280;46102;39.012;-7.064;2022-09-09T04:59:16;98694.03;;;19.67;83.23
60240;BME280;46102;39.012;-7.064;2022-09-09T05:01:23;98689.66;;;19.66;83.11
60240;BME280;46102;39.012;-7.064;2022-09-09T05:03:26;98698.31;;;19.61;83.39
60240;BME280;46102;39.012;-7.064;2022-09-09T05:05:27;98694.41;;;19.66;83.36
60240;BME280;46102;39.012;-7.064;2022-09-09T05:07:29;98700.66;;;19.59;83.58
60240;BME280;46102;39.012;-7.064;2022-09-09T05:09:32;98704.25;;;19.60;83.74
60240;BME280;46102;39.012;-7.064;2022-09-09T05:11:34;98701.41;;;19.56;83.87
60240;BME280;46102;39.012;-7.064;2022-09-09T05:13:51;98695.41;;;19.54;84.09
60240;BME280;46102;39.012;-7.064;2022-09-09T05:15:53;98695.78;;;19.52;84.27
60240;BME280;46102;39.012;-7.064;2022-09-09T05:18:00;98687.81;;;19.51;84.18
60240;BME280;46102;39.012;-7.064;2022-09-09T05:20:02;98698.88;;;19.47;84.39
60240;BME280;46102;39.012;-7.064;2022-09-09T05:22:05;98692.50;;;19.47;84.30
60240;BME280;46102;39.012;-7.064;2022-09-09T05:24:14;98708.03;;;19.48;84.35
60240;BME280;46102;39.012;-7.064;2022-09-09T05:26:17;98704.00;;;19.45;84.34
60240;BME280;46102;39.012;-7.064;2022-09-09T05:28:20;98711.13;;;19.43;84.59
60240;BME280;46102;39.012;-7.064;2022-09-09T05:30:21;98703.59;;;19.43;84.51
60240;BME280;46102;39.012;-7.064;2022-09-09T05:32:25;98698.41;;;19.42;84.67
60240;BME280;46102;39.012;-7.064;2022-09-09T05:34:26;98703.53;;;19.40;84.75
60240;BME280;46102;39.012;-7.064;2022-09-09T05:36:27;98705.53;;;19.39;84.51
60240;BME280;46102;39.012;-7.064;2022-09-09T05:38:31;98704.75;;;19.42;84.77
60240;BME280;46102;39.012;-7.064;2022-09-09T05:40:34;98707.06;;;19.37;84.74
60240;BME280;46102;39.012;-7.064;2022-09-09T05:42:35;98709.41;;;19.34;84.82
60240;BME280;46102;39.012;-7.064;2022-09-09T05:44:36;98706.19;;;19.32;84.96
60240;BME280;46102;39.012;-7.064;2022-09-09T05:46:37;98705.34;;;19.28;85.23
60240;BME280;46102;39.012;-7.064;2022-09-09T05:48:41;98706.13;;;19.29;85.24
60240;BME280;46102;39.012;-7.064;2022-09-09T05:50:42;98704.47;;;19.24;85.29
60240;BME280;46102;39.012;-7.064;2022-09-09T05:52:44;98707.25;;;19.24;85.52
60240;BME280;46102;39.012;-7.064;2022-09-09T05:54:45;98704.47;;;19.24;85.69
60240;BME280;46102;39.012;-7.064;2022-09-09T05:56:46;98712.81;;;19.24;85.74
60240;BME280;46102;39.012;-7.064;2022-09-09T05:58:47;98712.38;;;19.22;85.91
60240;BME280;46102;39.012;-7.064;2022-09-09T06:00:48;98716.25;;;19.18;86.07
60240;BME280;46102;39.012;-7.064;2022-09-09T06:02:52;98719.84;;;19.18;86.15
60240;BME280;46102;39.012;-7.064;2022-09-09T06:04:54;98721.47;;;19.19;86.19
60240;BME280;46102;39.012;-7.064;2022-09-09T06:06:58;98713.56;;;19.21;86.33
60240;BME280;46102;39.012;-7.064;2022-09-09T06:08:59;98719.03;;;19.18;86.32
60240;BME280;46102;39.012;-7.064;2022-09-09T06:13:12;98719.47;;;19.20;86.30
60240;BME280;46102;39.012;-7.064;2022-09-09T06:15:13;98717.56;;;19.24;85.98
60240;BME280;46102;39.012;-7.064;2022-09-09T06:17:14;98713.16;;;19.23;85.95
60240;BME280;46102;39.012;-7.064;2022-09-09T06:19:15;98711.94;;;19.20;86.05
60240;BME280;46102;39.012;-7.064;2022-09-09T06:21:21;98715.09;;;19.19;86.15
60240;BME280;46102;39.012;-7.064;2022-09-09T06:23:22;98724.69;;;19.21;86.23
60240;BME280;46102;39.012;-7.064;2022-09-09T06:25:23;98720.72;;;19.22;85.95
60240;BME280;46102;39.012;-7.064;2022-09-09T06:27:27;98717.13;;;19.22;85.73
60240;BME280;46102;39.012;-7.064;2022-09-09T06:29:28;98726.72;;;19.24;85.96
60240;BME280;46102;39.012;-7.064;2022-09-09T06:31:31;98721.09;;;19.21;85.90
60240;BME280;46102;39.012;-7.064;2022-09-09T06:33:41;98735.06;;;19.24;85.86
60240;BME280;46102;39.012;-7.064;2022-09-09T06:35:42;98730.28;;;19.25;85.82
60240;BME280;46102;39.012;-7.064;2022-09-09T06:37:52;98731.56;;;19.27;85.70
60240;BME280;46102;39.012;-7.064;2022-09-09T06:39:53;98732.03;;;19.33;85.40
60240;BME280;46102;39.012;-7.064;2022-09-09T06:41:55;98728.13;;;19.38;85.07
60240;BME280;46102;39.012;-7.064;2022-09-09T06:44:22;98729.78;;;19.42;84.85
60240;BME280;46102;39.012;-7.064;2022-09-09T06:46:27;98732.25;;;19.47;84.59
60240;BME280;46102;39.012;-7.064;2022-09-09T06:48:28;98729.97;;;19.53;84.16
60240;BME280;46102;39.012;-7.064;2022-09-09T06:50:29;98732.00;;;19.56;83.97
60240;BME280;46102;39.012;-7.064;2022-09-09T06:52:30;98742.94;;;19.68;83.33
60240;BME280;46102;39.012;-7.064;2022-09-09T06:54:33;98736.47;;;19.84;82.01
60240;BME280;46102;39.012;-7.064;2022-09-09T06:56:39;98739.28;;;19.87;81.95
60240;BME280;46102;39.012;-7.064;2022-09-09T06:58:52;98739.88;;;20.00;81.27
60240;BME280;46102;39.012;-7.064;2022-09-09T07:01:03;98740.03;;;20.11;80.26
60240;BME280;46102;39.012;-7.064;2022-09-09T07:03:05;98749.34;;;20.22;80.28
60240;BME280;46102;39.012;-7.064;2022-09-09T07:05:07;98750.16;;;20.26;80.08
60240;BME280;46102;39.012;-7.064;2022-09-09T07:07:09;98746.69;;;20.33;79.81
60240;BME280;46102;39.012;-7.064;2022-09-09T07:09:14;98740.09;;;20.45;79.57
60240;BME280;46102;39.012;-7.064;2022-09-09T07:11:19;98747.13;;;20.65;78.81
60240;BME280;46102;39.012;-7.064;2022-09-09T07:13:26;98745.00;;;20.89;77.03
60240;BME280;46102;39.012;-7.064;2022-09-09T07:15:29;98740.03;;;21.09;76.62
60240;BME280;46102;39.012;-7.064;2022-09-09T07:17:30;98742.56;;;21.25;75.65
60240;BME280;46102;39.012;-7.064;2022-09-09T07:19:33;98746.75;;;21.41;74.73
60240;BME280;46102;39.012;-7.064;2022-09-09T07:21:36;98747.69;;;21.60;74.35
60240;BME280;46102;39.012;-7.064;2022-09-09T07:23:38;98744.66;;;21.79;73.26
60240;BME280;46102;39.012;-7.064;2022-09-09T07:27:46;98743.38;;;22.25;71.46
60240;BME280;46102;39.012;-7.064;2022-09-09T07:29:48;98747.44;;;22.38;70.55
60240;BME280;46102;39.012;-7.064;2022-09-09T07:31:49;98743.91;;;22.56;70.11
60240;BME280;46102;39.012;-7.064;2022-09-09T07:33:54;98748.41;;;22.75;69.09
60240;BME280;46102;39.012;-7.064;2022-09-09T07:36:02;98748.03;;;22.87;68.41
60240;BME280;46102;39.012;-7.064;2022-09-09T07:38:04;98750.91;;;23.05;67.52
60240;BME280;46102;39.012;-7.064;2022-09-09T07:40:07;98754.53;;;23.20;67.14
60240;BME280;46102;39.012;-7.064;2022-09-09T07:42:08;98748.56;;;23.28;65.96
60240;BME280;46102;39.012;-7.064;2022-09-09T07:44:14;98754.56;;;23.45;65.36
60240;BME280;46102;39.012;-7.064;2022-09-09T07:46:18;98753.75;;;23.55;64.53
60240;BME280;46102;39.012;-7.064;2022-09-09T07:48:20;98759.38;;;23.62;63.54
60240;BME280;46102;39.012;-7.064;2022-09-09T07:50:21;98757.78;;;23.83;63.69
60240;BME280;46102;39.012;-7.064;2022-09-09T07:52:22;98758.56;;;23.98;63.32
60240;BME280;46102;39.012;-7.064;2022-09-09T07:54:27;98754.50;;;24.20;62.79
60240;BME280;46102;39.012;-7.064;2022-09-09T07:56:29;98753.28;;;24.39;61.93
60240;BME280;46102;39.012;-7.064;2022-09-09T07:58:31;98761.22;;;24.62;61.46
60240;BME280;46102;39.012;-7.064;2022-09-09T08:00:32;98765.19;;;24.79;60.79
60240;BME280;46102;39.012;-7.064;2022-09-09T08:02:34;98757.47;;;24.94;59.88
60240;BME280;46102;39.012;-7.064;2022-09-09T08:04:35;98762.59;;;25.13;59.82
60240;BME280;46102;39.012;-7.064;2022-09-09T08:06:41;98770.53;;;25.29;58.67
60240;BME280;46102;39.012;-7.064;2022-09-09T08:08:44;98772.44;;;25.43;58.32
60240;BME280;46102;39.012;-7.064;2022-09-09T08:10:45;98764.66;;;25.62;58.10
60240;BME280;46102;39.012;-7.064;2022-09-09T08:12:47;98764.59;;;25.72;57.36
60240;BME280;46102;39.012;-7.064;2022-09-09T08:14:49;98759.28;;;25.85;56.95
60240;BME280;46102;39.012;-7.064;2022-09-09T08:16:51;98753.94;;;25.98;56.46
60240;BME280;46102;39.012;-7.064;2022-09-09T08:18:57;98760.25;;;26.09;55.97
60240;BME280;46102;39.012;-7.064;2022-09-09T08:21:07;98751.94;;;25.99;55.31
60240;BME280;46102;39.012;-7.064;2022-09-09T08:23:09;98746.59;;;26.11;55.70
60240;BME280;46102;39.012;-7.064;2022-09-09T08:25:11;98756.97;;;26.18;55.45
60240;BME280;46102;39.012;-7.064;2022-09-09T08:27:13;98756.97;;;26.18;55.42
60240;BME280;46102;39.012;-7.064;2022-09-09T08:29:15;98760.06;;;26.27;55.14
60240;BME280;46102;39.012;-7.064;2022-09-09T08:31:20;98768.44;;;26.34;54.88
60240;BME280;46102;39.012;-7.064;2022-09-09T08:33:22;98760.81;;;26.35;54.95
60240;BME280;46102;39.012;-7.064;2022-09-09T08:35:23;98764.03;;;26.33;54.72
60240;BME280;46102;39.012;-7.064;2022-09-09T08:37:25;98764.53;;;26.25;54.64
60240;BME280;46102;39.012;-7.064;2022-09-09T08:39:26;98763.56;;;26.38;54.45
60240;BME280;46102;39.012;-7.064;2022-09-09T08:43:50;98760.13;;;26.62;53.62
60240;BME280;46102;39.012;-7.064;2022-09-09T08:46:17;98760.03;;;26.69;53.26
60240;BME280;46102;39.012;-7.064;2022-09-09T08:48:42;98760.97;;;26.89;53.14
60240;BME280;46102;39.012;-7.064;2022-09-09T08:50:44;98761.53;;;27.08;51.98
60240;BME280;46102;39.012;-7.064;2022-09-09T08:57:26;98771.63;;;27.36;50.87
60240;BME280;46102;39.012;-7.064;2022-09-09T08:59:29;98770.97;;;27.52;50.45
60240;BME280;46102;39.012;-7.064;2022-09-09T09:01:41;98778.31;;;27.69;49.96
60240;BME280;46102;39.012;-7.064;2022-09-09T09:10:58;98792.38;;;28.20;48.25
60240;BME280;46102;39.012;-7.064;2022-09-09T09:13:01;98797.28;;;28.16;48.43
60240;BME280;46102;39.012;-7.064;2022-09-09T09:15:14;98794.19;;;28.30;48.13
60240;BME280;46102;39.012;-7.064;2022-09-09T09:17:20;98796.28;;;28.50;47.70
60240;BME280;46102;39.012;-7.064;2022-09-09T09:19:26;98796.50;;;28.59;46.87
60240;BME280;46102;39.012;-7.064;2022-09-09T09:21:34;98788.78;;;28.63;46.95
60240;BME280;46102;39.012;-7.064;2022-09-09T09:23:48;98790.50;;;28.77;46.41
60240;BME280;46102;39.012;-7.064;2022-09-09T09:25:58;98798.75;;;28.88;46.90
60240;BME280;46102;39.012;-7.064;2022-09-09T09:30:20;98798.88;;;29.20;45.53
60240;BME280;46102;39.012;-7.064;2022-09-09T09:32:22;98804.19;;;29.18;45.58
60240;BME280;46102;39.012;-7.064;2022-09-09T09:34:24;98801.78;;;29.17;45.37
60240;BME280;46102;39.012;-7.064;2022-09-09T09:36:52;98806.91;;;29.22;44.94
60240;BME280;46102;39.012;-7.064;2022-09-09T09:38:59;98801.56;;;29.44;44.79
60240;BME280;46102;39.012;-7.064;2022-09-09T09:41:02;98802.50;;;29.74;44.37
60240;BME280;46102;39.012;-7.064;2022-09-09T09:43:04;98797.38;;;29.85;43.75
60240;BME280;46102;39.012;-7.064;2022-09-09T09:45:29;98803.75;;;29.89;43.39
60240;BME280;46102;39.012;-7.064;2022-09-09T09:47:33;98806.47;;;30.09;43.16
60240;BME280;46102;39.012;-7.064;2022-09-09T09:49:53;98813.09;;;30.19;42.55
60240;BME280;46102;39.012;-7.064;2022-09-09T09:52:00;98811.16;;;30.32;42.20
60240;BME280;46102;39.012;-7.064;2022-09-09T09:56:28;98804.84;;;30.41;42.11
60240;BME280;46102;39.012;-7.064;2022-09-09T09:58:33;98809.59;;;30.60;41.49
60240;BME280;46102;39.012;-7.064;2022-09-09T10:00:50;98808.19;;;30.81;41.13
60240;BME280;46102;39.012;-7.064;2022-09-09T10:02:53;98809.25;;;30.71;40.74
60240;BME280;46102;39.012;-7.064;2022-09-09T10:05:16;98804.09;;;30.82;41.13
60240;BME280;46102;39.012;-7.064;2022-09-09T10:07:21;98805.75;;;30.96;40.26
60240;BME280;46102;39.012;-7.064;2022-09-09T10:09:24;98802.94;;;30.80;40.73
60240;BME280;46102;39.012;-7.064;2022-09-09T10:11:55;98806.19;;;30.65;41.05
60240;BME280;46102;39.012;-7.064;2022-09-09T10:19:30;98794.34;;;31.12;40.17
60240;BME280;46102;39.012;-7.064;2022-09-09T10:21:44;98803.72;;;30.97;40.08
60240;BME280;46102;39.012;-7.064;2022-09-09T10:33:13;98792.53;;;31.31;39.08
60240;BME280;46102;39.012;-7.064;2022-09-09T10:39:44;98794.38;;;31.77;38.60
60240;BME280;46102;39.012;-7.064;2022-09-09T10:42:02;98790.97;;;31.56;38.70
60240;BME280;46102;39.012;-7.064;2022-09-09T10:44:33;98788.13;;;31.43;38.80
60240;BME280;46102;39.012;-7.064;2022-09-09T10:49:19;98785.97;;;31.35;38.70
60240;BME280;46102;39.012;-7.064;2022-09-09T10:55:53;98779.41;;;31.38;38.15
60240;BME280;46102;39.012;-7.064;2022-09-09T10:57:57;98775.34;;;31.51;38.42
60240;BME280;46102;39.012;-7.064;2022-09-09T11:00:03;98783.16;;;31.47;38.28
60240;BME280;46102;39.012;-7.064;2022-09-09T11:02:27;98780.56;;;31.53;38.33
60240;BME280;46102;39.012;-7.064;2022-09-09T11:04:33;98775.97;;;31.94;37.82
60240;BME280;46102;39.012;-7.064;2022-09-09T11:06:41;98768.41;;;32.26;36.98
60240;BME280;46102;39.012;-7.064;2022-09-09T11:08:42;98767.75;;;32.56;36.53
60240;BME280;46102;39.012;-7.064;2022-09-09T11:11:01;98771.03;;;32.55;36.64
60240;BME280;46102;39.012;-7.064;2022-09-09T11:13:08;98763.25;;;32.68;36.44
60240;BME280;46102;39.012;-7.064;2022-09-09T11:15:28;98762.28;;;32.93;35.99
60240;BME280;46102;39.012;-7.064;2022-09-09T11:17:39;98762.78;;;33.23;35.09
60240;BME280;46102;39.012;-7.064;2022-09-09T11:19:43;98759.56;;;33.12;35.53
60240;BME280;46102;39.012;-7.064;2022-09-09T11:21:46;98756.19;;;32.73;35.96
60240;BME280;46102;39.012;-7.064;2022-09-09T11:23:53;98764.25;;;32.52;36.34
60240;BME280;46102;39.012;-7.064;2022-09-09T11:25:59;98758.34;;;32.69;36.11
60240;BME280;46102;39.012;-7.064;2022-09-09T11:30:25;98751.16;;;32.55;36.20
60240;BME280;46102;39.012;-7.064;2022-09-09T11:42:06;98744.94;;;33.23;35.33
60240;BME280;46102;39.012;-7.064;2022-09-09T11:44:11;98742.75;;;33.58;34.38
60240;BME280;46102;39.012;-7.064;2022-09-09T11:46:15;98739.50;;;33.87;33.82
60240;BME280;46102;39.012;-7.064;2022-09-09T11:48:39;98732.44;;;34.10;33.55
60240;BME280;46102;39.012;-7.064;2022-09-09T11:50:45;98727.84;;;34.13;33.31
60240;BME280;46102;39.012;-7.064;2022-09-09T11:52:47;98720.91;;;34.14;33.06
60240;BME280;46102;39.012;-7.064;2022-09-09T11:54:49;98728.25;;;33.93;33.21
60240;BME280;46102;39.012;-7.064;2022-09-09T11:56:50;98723.06;;;33.91;33.37
60240;BME280;46102;39.012;-7.064;2022-09-09T11:59:05;98721.47;;;33.99;33.76
60240;BME280;46102;39.012;-7.064;2022-09-09T12:01:15;98719.78;;;34.20;33.04
60240;BME280;46102;39.012;-7.064;2022-09-09T12:05:45;98712.97;;;34.46;32.38
60240;BME280;46102;39.012;-7.064;2022-09-09T12:07:56;98713.59;;;34.40;32.33
60240;BME280;46102;39.012;-7.064;2022-09-09T12:10:19;98721.84;;;34.38;32.16
60240;BME280;46102;39.012;-7.064;2022-09-09T12:12:27;98711.72;;;34.19;32.11
60240;BME280;46102;39.012;-7.064;2022-09-09T12:16:37;98704.22;;;34.86;31.61
60240;BME280;46102;39.012;-7.064;2022-09-09T12:18:39;98701.94;;;34.99;30.15
60240;BME280;46102;39.012;-7.064;2022-09-09T12:23:30;98698.19;;;34.84;30.42
60240;BME280;46102;39.012;-7.064;2022-09-09T12:28:19;98701.19;;;35.32;29.95
60240;BME280;46102;39.012;-7.064;2022-09-09T12:30:21;98686.44;;;35.67;29.15
60240;BME280;46102;39.012;-7.064;2022-09-09T12:32:25;98691.84;;;35.65;29.16
60240;BME280;46102;39.012;-7.064;2022-09-09T12:34:35;98682.63;;;35.70;28.58
60240;BME280;46102;39.012;-7.064;2022-09-09T12:36:39;98678.84;;;35.64;28.60
60240;BME280;46102;39.012;-7.064;2022-09-09T12:38:43;98681.22;;;35.90;28.54
60240;BME280;46102;39.012;-7.064;2022-09-09T12:40:54;98678.59;;;36.01;28.28